sensor_id;sensor_type;location;lat;lon;timestamp;P1;durP1;ratioP1;P2;durP2;ratioP2
70052;SDS011;57398;52.032;4.376;2023-02-19T00:00:30;12.20;;;2.88;;
70052;SDS011;57398;52.032;4.376;2023-02-19T00:03:19;22.27;;;4.00;;
70052;SDS011;57398;52.032;4.376;2023-02-19T00:06:08;10.82;;;2.72;;
70052;SDS011;57398;52.032;4.376;2023-02-19T00:08:57;9.25;;;2.38;;
70052;SDS011;57398;52.032;4.376;2023-02-19T00:11:46;10.53;;;2.47;;
70052;SDS011;57398;52.032;4.376;2023-02-19T00:14:34;12.02;;;2.28;;
70052;SDS011;57398;52.032;4.376;2023-02-19T00:17:22;13.38;;;2.53;;
70052;SDS011;57398;52.032;4.376;2023-02-19T00:20:12;12.77;;;2.50;;
70052;SDS011;57398;52.032;4.376;2023-02-19T00:23:00;11.32;;;2.65;;
70052;SDS011;57398;52.032;4.376;2023-02-19T00:25:48;16.20;;;2.70;;
70052;SDS011;57398;52.032;4.376;2023-02-19T00:28:37;9.57;;;2.38;;
70052;SDS011;57398;52.032;4.376;2023-02-19T00:31:26;15.68;;;2.40;;
70052;SDS011;57398;52.032;4.376;2023-02-19T00:34:18;12.82;;;2.40;;
70052;SDS011;57398;52.032;4.376;2023-02-19T00:37:07;8.57;;;1.88;;
70052;SDS011;57398;52.032;4.376;2023-02-19T00:39:55;13.73;;;2.20;;
70052;SDS011;57398;52.032;4.376;2023-02-19T00:42:43;13.02;;;2.58;;
70052;SDS011;57398;52.032;4.376;2023-02-19T00:45:32;11.55;;;2.45;;
70052;SDS011;57398;52.032;4.376;2023-02-19T00:48:21;11.82;;;1.60;;
70052;SDS011;57398;52.032;4.376;2023-02-19T00:51:09;11.77;;;2.65;;
70052;SDS011;57398;52.032;4.376;2023-02-19T00:53:59;9.80;;;2.33;;
70052;SDS011;57398;52.032;4.376;2023-02-19T00:56:47;10.75;;;2.42;;
70052;SDS011;57398;52.032;4.376;2023-02-19T00:59:36;10.07;;;2.45;;
70052;SDS011;57398;52.032;4.376;2023-02-19T01:02:24;8.90;;;2.45;;
70052;SDS011;57398;52.032;4.376;2023-02-19T01:05:13;7.38;;;2.13;;
70052;SDS011;57398;52.032;4.376;2023-02-19T01:08:01;10.73;;;2.33;;
70052;SDS011;57398;52.032;4.376;2023-02-19T01:10:51;11.48;;;2.45;;
70052;SDS011;57398;52.032;4.376;2023-02-19T01:13:39;12.85;;;2.15;;
70052;SDS011;57398;52.032;4.376;2023-02-19T01:16:28;10.38;;;2.75;;
70052;SDS011;57398;52.032;4.376;2023-02-19T01:19:16;10.55;;;2.50;;
70052;SDS011;57398;52.032;4.376;2023-02-19T01:22:04;12.97;;;2.70;;
70052;SDS011;57398;52.032;4.376;2023-02-19T01:24:53;11.35;;;2.50;;
70052;SDS011;57398;52.032;4.376;2023-02-19T01:27:42;10.82;;;2.08;;
70052;SDS011;57398;52.032;4.376;2023-02-19T01:30:32;8.70;;;2.25;;
70052;SDS011;57398;52.032;4.376;2023-02-19T01:33:20;9.35;;;2.40;;
70052;SDS011;57398;52.032;4.376;2023-02-19T01:36:09;15.63;;;2.70;;
70052;SDS011;57398;52.032;4.376;2023-02-19T01:38:58;11.20;;;2.70;;
70052;SDS011;57398;52.032;4.376;2023-02-19T01:41:49;11.43;;;3.10;;
70052;SDS011;57398;52.032;4.376;2023-02-19T01:48:05;11.63;;;2.95;;
70052;SDS011;57398;52.032;4.376;2023-02-19T01:50:57;10.53;;;2.33;;
70052;SDS011;57398;52.032;4.376;2023-02-19T01:53:51;10.23;;;2.67;;
70052;SDS011;57398;52.032;4.376;2023-02-19T01:56:43;12.70;;;2.70;;
70052;SDS011;57398;52.032;4.376;2023-02-19T01:59:34;8.50;;;2.15;;
70052;SDS011;57398;52.032;4.376;2023-02-19T02:02:24;10.10;;;1.88;;
70052;SDS011;57398;52.032;4.376;2023-02-19T02:05:14;10.00;;;2.40;;
70052;SDS011;57398;52.032;4.376;2023-02-19T02:08:11;13.75;;;2.00;;
70052;SDS011;57398;52.032;4.376;2023-02-19T02:11:19;13.77;;;2.50;;
70052;SDS011;57398;52.032;4.376;2023-02-19T02:14:07;14.07;;;2.20;;
70052;SDS011;57398;52.032;4.376;2023-02-19T02:16:56;4.95;;;1.35;;
70052;SDS011;57398;52.032;4.376;2023-02-19T02:20:02;14.37;;;2.07;;
70052;SDS011;57398;52.032;4.376;2023-02-19T02:23:08;9.18;;;1.95;;
70052;SDS011;57398;52.032;4.376;2023-02-19T02:26:07;6.70;;;1.65;;
70052;SDS011;57398;52.032;4.376;2023-02-19T02:29:21;8.40;;;1.67;;
70052;SDS011;57398;52.032;4.376;2023-02-19T02:32:25;10.68;;;2.53;;
70052;SDS011;57398;52.032;4.376;2023-02-19T02:35:19;9.40;;;1.93;;
70052;SDS011;57398;52.032;4.376;2023-02-19T02:38:10;12.18;;;2.20;;
70052;SDS011;57398;52.032;4.376;2023-02-19T02:41:00;7.30;;;1.67;;
70052;SDS011;57398;52.032;4.376;2023-02-19T02:43:49;13.45;;;2.20;;
70052;SDS011;57398;52.032;4.376;2023-02-19T02:46:38;11.23;;;2.58;;
70052;SDS011;57398;52.032;4.376;2023-02-19T02:49:30;10.30;;;2.30;;
70052;SDS011;57398;52.032;4.376;2023-02-19T02:52:41;7.32;;;1.65;;
70052;SDS011;57398;52.032;4.376;2023-02-19T02:55:52;8.65;;;2.08;;
70052;SDS011;57398;52.032;4.376;2023-02-19T02:58:41;8.38;;;1.80;;
70052;SDS011;57398;52.032;4.376;2023-02-19T03:01:32;11.35;;;2.20;;
70052;SDS011;57398;52.032;4.376;2023-02-19T03:04:45;7.50;;;1.90;;
70052;SDS011;57398;52.032;4.376;2023-02-19T03:07:57;9.57;;;2.10;;
70052;SDS011;57398;52.032;4.376;2023-02-19T03:10:53;11.00;;;2.30;;
70052;SDS011;57398;52.032;4.376;2023-02-19T03:14:06;10.40;;;2.33;;
70052;SDS011;57398;52.032;4.376;2023-02-19T03:17:17;12.68;;;2.90;;
70052;SDS011;57398;52.032;4.376;2023-02-19T03:20:29;15.07;;;2.10;;
70052;SDS011;57398;52.032;4.376;2023-02-19T03:23:22;11.98;;;2.40;;
70052;SDS011;57398;52.032;4.376;2023-02-19T03:26:34;10.75;;;1.95;;
70052;SDS011;57398;52.032;4.376;2023-02-19T03:29:23;10.07;;;2.33;;
70052;SDS011;57398;52.032;4.376;2023-02-19T03:32:16;13.90;;;2.30;;
70052;SDS011;57398;52.032;4.376;2023-02-19T03:35:08;9.53;;;2.03;;
70052;SDS011;57398;52.032;4.376;2023-02-19T03:38:02;13.77;;;2.28;;
70052;SDS011;57398;52.032;4.376;2023-02-19T03:40:56;10.10;;;1.88;;
70052;SDS011;57398;52.032;4.376;2023-02-19T03:43:51;11.18;;;2.00;;
70052;SDS011;57398;52.032;4.376;2023-02-19T03:46:50;10.15;;;1.67;;
70052;SDS011;57398;52.032;4.376;2023-02-19T03:49:43;8.43;;;1.73;;
70052;SDS011;57398;52.032;4.376;2023-02-19T03:52:36;10.52;;;1.80;;
70052;SDS011;57398;52.032;4.376;2023-02-19T03:55:33;10.25;;;1.92;;
70052;SDS011;57398;52.032;4.376;2023-02-19T03:58:31;11.80;;;2.42;;
70052;SDS011;57398;52.032;4.376;2023-02-19T04:01:26;8.05;;;1.77;;
70052;SDS011;57398;52.032;4.376;2023-02-19T04:04:18;6.23;;;1.50;;
70052;SDS011;57398;52.032;4.376;2023-02-19T04:07:10;12.15;;;2.70;;
70052;SDS011;57398;52.032;4.376;2023-02-19T04:09:58;8.70;;;1.60;;
70052;SDS011;57398;52.032;4.376;2023-02-19T04:12:49;15.23;;;2.13;;
70052;SDS011;57398;52.032;4.376;2023-02-19T04:15:40;9.25;;;2.17;;
70052;SDS011;57398;52.032;4.376;2023-02-19T04:18:31;13.20;;;2.13;;
70052;SDS011;57398;52.032;4.376;2023-02-19T04:21:22;11.73;;;2.60;;
70052;SDS011;57398;52.032;4.376;2023-02-19T04:24:12;11.02;;;1.80;;
70052;SDS011;57398;52.032;4.376;2023-02-19T04:27:05;9.30;;;2.20;;
70052;SDS011;57398;52.032;4.376;2023-02-19T04:29:57;10.75;;;2.28;;
70052;SDS011;57398;52.032;4.376;2023-02-19T04:32:45;13.30;;;2.43;;
70052;SDS011;57398;52.032;4.376;2023-02-19T04:35:34;7.18;;;2.00;;
70052;SDS011;57398;52.032;4.376;2023-02-19T04:38:22;9.05;;;1.80;;
70052;SDS011;57398;52.032;4.376;2023-02-19T04:41:10;10.82;;;1.95;;
70052;SDS011;57398;52.032;4.376;2023-02-19T04:43:58;9.30;;;2.10;;
70052;SDS011;57398;52.032;4.376;2023-02-19T04:46:48;13.07;;;2.20;;
70052;SDS011;57398;52.032;4.376;2023-02-19T04:49:36;9.50;;;2.53;;
70052;SDS011;57398;52.032;4.376;2023-02-19T04:52:25;7.45;;;1.60;;
70052;SDS011;57398;52.032;4.376;2023-02-19T04:55:13;8.00;;;2.05;;
70052;SDS011;57398;52.032;4.376;2023-02-19T04:58:00;8.73;;;1.88;;
70052;SDS011;57398;52.032;4.376;2023-02-19T05:00:52;8.90;;;1.90;;
70052;SDS011;57398;52.032;4.376;2023-02-19T05:03:41;7.57;;;1.77;;
70052;SDS011;57398;52.032;4.376;2023-02-19T05:06:30;9.75;;;2.08;;
70052;SDS011;57398;52.032;4.376;2023-02-19T05:09:18;11.25;;;2.40;;
70052;SDS011;57398;52.032;4.376;2023-02-19T05:12:06;8.35;;;2.00;;
70052;SDS011;57398;52.032;4.376;2023-02-19T05:14:54;7.60;;;2.10;;
70052;SDS011;57398;52.032;4.376;2023-02-19T05:17:42;6.93;;;2.20;;
70052;SDS011;57398;52.032;4.376;2023-02-19T05:20:32;10.48;;;2.50;;
70052;SDS011;57398;52.032;4.376;2023-02-19T05:23:20;11.52;;;2.08;;
70052;SDS011;57398;52.032;4.376;2023-02-19T05:26:10;12.30;;;2.33;;
70052;SDS011;57398;52.032;4.376;2023-02-19T05:28:59;9.97;;;2.23;;
70052;SDS011;57398;52.032;4.376;2023-02-19T05:31:47;7.15;;;2.03;;
70052;SDS011;57398;52.032;4.376;2023-02-19T05:34:35;10.63;;;2.67;;
70052;SDS011;57398;52.032;4.376;2023-02-19T05:37:25;13.27;;;2.40;;
70052;SDS011;57398;52.032;4.376;2023-02-19T05:40:13;12.05;;;2.67;;
70052;SDS011;57398;52.032;4.376;2023-02-19T05:43:01;11.47;;;2.47;;
70052;SDS011;57398;52.032;4.376;2023-02-19T05:45:49;15.02;;;3.00;;
70052;SDS011;57398;52.032;4.376;2023-02-19T05:48:37;8.50;;;2.13;;
70052;SDS011;57398;52.032;4.376;2023-02-19T05:51:26;10.57;;;2.42;;
70052;SDS011;57398;52.032;4.376;2023-02-19T05:54:15;13.77;;;2.90;;
70052;SDS011;57398;52.032;4.376;2023-02-19T05:57:03;9.83;;;2.63;;
70052;SDS011;57398;52.032;4.376;2023-02-19T05:59:51;9.50;;;2.38;;
70052;SDS011;57398;52.032;4.376;2023-02-19T06:02:39;7.95;;;2.40;;
70052;SDS011;57398;52.032;4.376;2023-02-19T06:05:28;9.07;;;2.55;;
70052;SDS011;57398;52.032;4.376;2023-02-19T06:08:16;13.77;;;2.58;;
70052;SDS011;57398;52.032;4.376;2023-02-19T06:11:05;9.33;;;2.40;;
70052;SDS011;57398;52.032;4.376;2023-02-19T06:13:54;9.18;;;2.30;;
70052;SDS011;57398;52.032;4.376;2023-02-19T06:16:42;11.30;;;2.42;;
70052;SDS011;57398;52.032;4.376;2023-02-19T06:19:30;9.65;;;2.50;;
70052;SDS011;57398;52.032;4.376;2023-02-19T06:22:18;7.78;;;1.88;;
70052;SDS011;57398;52.032;4.376;2023-02-19T06:25:06;8.50;;;2.30;;
70052;SDS011;57398;52.032;4.376;2023-02-19T06:27:59;7.53;;;1.90;;
70052;SDS011;57398;52.032;4.376;2023-02-19T06:30:47;9.80;;;2.20;;
70052;SDS011;57398;52.032;4.376;2023-02-19T06:33:37;9.75;;;2.47;;
70052;SDS011;57398;52.032;4.376;2023-02-19T06:36:26;6.25;;;1.80;;
70052;SDS011;57398;52.032;4.376;2023-02-19T06:39:15;7.03;;;2.33;;
70052;SDS011;57398;52.032;4.376;2023-02-19T06:42:03;7.82;;;2.03;;
70052;SDS011;57398;52.032;4.376;2023-02-19T06:44:52;8.38;;;2.28;;
70052;SDS011;57398;52.032;4.376;2023-02-19T06:47:40;8.18;;;2.00;;
70052;SDS011;57398;52.032;4.376;2023-02-19T06:50:28;9.65;;;2.60;;
70052;SDS011;57398;52.032;4.376;2023-02-19T06:53:16;9.23;;;1.70;;
70052;SDS011;57398;52.032;4.376;2023-02-19T06:56:05;7.13;;;1.98;;
70052;SDS011;57398;52.032;4.376;2023-02-19T06:58:57;8.27;;;2.17;;
70052;SDS011;57398;52.032;4.376;2023-02-19T07:01:51;10.77;;;2.28;;
70052;SDS011;57398;52.032;4.376;2023-02-19T07:04:39;10.00;;;2.15;;
70052;SDS011;57398;52.032;4.376;2023-02-19T07:07:27;8.00;;;2.30;;
70052;SDS011;57398;52.032;4.376;2023-02-19T07:10:15;9.50;;;2.58;;
70052;SDS011;57398;52.032;4.376;2023-02-19T07:13:04;12.82;;;2.50;;
70052;SDS011;57398;52.032;4.376;2023-02-19T07:15:56;10.85;;;2.40;;
70052;SDS011;57398;52.032;4.376;2023-02-19T07:18:47;12.70;;;2.53;;
70052;SDS011;57398;52.032;4.376;2023-02-19T07:21:35;12.40;;;2.90;;
70052;SDS011;57398;52.032;4.376;2023-02-19T07:24:23;13.38;;;2.80;;
70052;SDS011;57398;52.032;4.376;2023-02-19T07:27:11;10.93;;;2.85;;
70052;SDS011;57398;52.032;4.376;2023-02-19T07:29:59;9.05;;;2.22;;
70052;SDS011;57398;52.032;4.376;2023-02-19T07:32:48;9.85;;;2.70;;
70052;SDS011;57398;52.032;4.376;2023-02-19T07:35:38;9.33;;;2.37;;
70052;SDS011;57398;52.032;4.376;2023-02-19T07:38:32;9.20;;;2.30;;
70052;SDS011;57398;52.032;4.376;2023-02-19T07:41:20;10.65;;;2.28;;
70052;SDS011;57398;52.032;4.376;2023-02-19T07:44:08;10.07;;;2.50;;
70052;SDS011;57398;52.032;4.376;2023-02-19T07:46:59;7.43;;;1.98;;
70052;SDS011;57398;52.032;4.376;2023-02-19T07:49:47;9.20;;;2.17;;
70052;SDS011;57398;52.032;4.376;2023-02-19T07:52:36;10.63;;;2.72;;
70052;SDS011;57398;52.032;4.376;2023-02-19T07:55:24;10.02;;;2.28;;
70052;SDS011;57398;52.032;4.376;2023-02-19T07:58:12;8.55;;;2.58;;
70052;SDS011;57398;52.032;4.376;2023-02-19T08:01:05;10.00;;;2.92;;
70052;SDS011;57398;52.032;4.376;2023-02-19T08:03:56;10.67;;;2.50;;
70052;SDS011;57398;52.032;4.376;2023-02-19T08:06:43;11.27;;;2.35;;
70052;SDS011;57398;52.032;4.376;2023-02-19T08:09:33;11.80;;;2.40;;
70052;SDS011;57398;52.032;4.376;2023-02-19T08:12:21;7.15;;;1.90;;
70052;SDS011;57398;52.032;4.376;2023-02-19T08:15:27;9.50;;;2.45;;
70052;SDS011;57398;52.032;4.376;2023-02-19T08:18:15;6.73;;;1.93;;
70052;SDS011;57398;52.032;4.376;2023-02-19T08:21:04;9.48;;;2.40;;
70052;SDS011;57398;52.032;4.376;2023-02-19T08:23:52;10.40;;;2.65;;
70052;SDS011;57398;52.032;4.376;2023-02-19T08:26:41;14.07;;;2.53;;
70052;SDS011;57398;52.032;4.376;2023-02-19T08:29:29;8.70;;;2.28;;
70052;SDS011;57398;52.032;4.376;2023-02-19T08:32:17;8.97;;;1.73;;
70052;SDS011;57398;52.032;4.376;2023-02-19T08:35:05;11.75;;;2.10;;
70052;SDS011;57398;52.032;4.376;2023-02-19T08:37:54;11.60;;;2.42;;
70052;SDS011;57398;52.032;4.376;2023-02-19T08:40:43;13.82;;;2.38;;
70052;SDS011;57398;52.032;4.376;2023-02-19T08:43:33;9.00;;;2.20;;
70052;SDS011;57398;52.032;4.376;2023-02-19T08:46:21;12.07;;;2.37;;
70052;SDS011;57398;52.032;4.376;2023-02-19T08:49:09;11.23;;;2.38;;
70052;SDS011;57398;52.032;4.376;2023-02-19T08:51:58;10.18;;;2.30;;
70052;SDS011;57398;52.032;4.376;2023-02-19T08:54:46;8.07;;;1.85;;
70052;SDS011;57398;52.032;4.376;2023-02-19T08:57:34;8.63;;;2.60;;
70052;SDS011;57398;52.032;4.376;2023-02-19T09:00:25;14.70;;;2.30;;
70052;SDS011;57398;52.032;4.376;2023-02-19T09:03:13;11.57;;;2.20;;
70052;SDS011;57398;52.032;4.376;2023-02-19T09:06:02;8.93;;;1.55;;
70052;SDS011;57398;52.032;4.376;2023-02-19T09:08:50;7.35;;;1.88;;
70052;SDS011;57398;52.032;4.376;2023-02-19T09:11:38;11.00;;;1.88;;
70052;SDS011;57398;52.032;4.376;2023-02-19T09:14:26;7.73;;;1.83;;
70052;SDS011;57398;52.032;4.376;2023-02-19T09:17:20;7.30;;;1.83;;
70052;SDS011;57398;52.032;4.376;2023-02-19T09:20:08;7.00;;;1.85;;
70052;SDS011;57398;52.032;4.376;2023-02-19T09:22:56;7.07;;;1.60;;
70052;SDS011;57398;52.032;4.376;2023-02-19T09:25:45;10.93;;;1.67;;
70052;SDS011;57398;52.032;4.376;2023-02-19T09:28:34;6.53;;;1.50;;
70052;SDS011;57398;52.032;4.376;2023-02-19T09:31:25;8.18;;;1.48;;
70052;SDS011;57398;52.032;4.376;2023-02-19T09:34:14;4.53;;;1.55;;
70052;SDS011;57398;52.032;4.376;2023-02-19T09:37:02;5.65;;;1.60;;
70052;SDS011;57398;52.032;4.376;2023-02-19T09:39:50;9.20;;;1.92;;
70052;SDS011;57398;52.032;4.376;2023-02-19T09:42:39;4.60;;;1.60;;
70052;SDS011;57398;52.032;4.376;2023-02-19T09:45:29;7.13;;;1.80;;
70052;SDS011;57398;52.032;4.376;2023-02-19T09:48:17;7.65;;;1.73;;
70052;SDS011;57398;52.032;4.376;2023-02-19T09:51:06;5.10;;;1.50;;
70052;SDS011;57398;52.032;4.376;2023-02-19T09:53:56;4.10;;;1.17;;
70052;SDS011;57398;52.032;4.376;2023-02-19T09:56:45;5.20;;;1.00;;
70052;SDS011;57398;52.032;4.376;2023-02-19T09:59:36;5.93;;;0.90;;
70052;SDS011;57398;52.032;4.376;2023-02-19T10:02:28;3.67;;;1.05;;
70052;SDS011;57398;52.032;4.376;2023-02-19T10:05:16;5.47;;;1.20;;
70052;SDS011;57398;52.032;4.376;2023-02-19T10:08:08;3.90;;;1.10;;
70052;SDS011;57398;52.032;4.376;2023-02-19T10:11:02;6.43;;;1.67;;
70052;SDS011;57398;52.032;4.376;2023-02-19T10:14:02;5.03;;;1.00;;
70052;SDS011;57398;52.032;4.376;2023-02-19T10:16:54;4.25;;;1.20;;
70052;SDS011;57398;52.032;4.376;2023-02-19T10:19:47;5.10;;;1.40;;
70052;SDS011;57398;52.032;4.376;2023-02-19T10:22:36;5.00;;;1.10;;
70052;SDS011;57398;52.032;4.376;2023-02-19T10:25:26;4.67;;;1.30;;
70052;SDS011;57398;52.032;4.376;2023-02-19T10:28:16;3.15;;;1.02;;
70052;SDS011;57398;52.032;4.376;2023-02-19T10:31:16;4.07;;;1.30;;
70052;SDS011;57398;52.032;4.376;2023-02-19T10:34:06;4.55;;;1.20;;
70052;SDS011;57398;52.032;4.376;2023-02-19T10:37:04;5.15;;;1.45;;
70052;SDS011;57398;52.032;4.376;2023-02-19T10:40:01;3.63;;;1.10;;
70052;SDS011;57398;52.032;4.376;2023-02-19T10:42:51;11.77;;;1.30;;
70052;SDS011;57398;52.032;4.376;2023-02-19T10:45:44;4.43;;;1.00;;
70052;SDS011;57398;52.032;4.376;2023-02-19T10:48:35;3.60;;;1.00;;
70052;SDS011;57398;52.032;4.376;2023-02-19T10:51:29;4.95;;;0.98;;
70052;SDS011;57398;52.032;4.376;2023-02-19T10:54:23;3.43;;;1.00;;
70052;SDS011;57398;52.032;4.376;2023-02-19T10:57:24;6.63;;;1.10;;
70052;SDS011;57398;52.032;4.376;2023-02-19T11:00:21;3.03;;;1.00;;
70052;SDS011;57398;52.032;4.376;2023-02-19T11:03:13;4.20;;;1.05;;
70052;SDS011;57398;52.032;4.376;2023-02-19T11:06:06;2.95;;;0.63;;
70052;SDS011;57398;52.032;4.376;2023-02-19T11:08:57;4.10;;;0.90;;
70052;SDS011;57398;52.032;4.376;2023-02-19T11:11:48;4.68;;;0.90;;
70052;SDS011;57398;52.032;4.376;2023-02-19T11:14:40;4.57;;;0.90;;
70052;SDS011;57398;52.032;4.376;2023-02-19T11:17:31;5.35;;;1.27;;
70052;SDS011;57398;52.032;4.376;2023-02-19T11:20:19;4.40;;;1.05;;
70052;SDS011;57398;52.032;4.376;2023-02-19T11:23:10;6.23;;;1.00;;
70052;SDS011;57398;52.032;4.376;2023-02-19T11:26:03;7.28;;;1.35;;
70052;SDS011;57398;52.032;4.376;2023-02-19T11:28:54;6.07;;;1.27;;
70052;SDS011;57398;52.032;4.376;2023-02-19T11:31:43;5.75;;;1.15;;
70052;SDS011;57398;52.032;4.376;2023-02-19T11:34:33;5.28;;;0.90;;
70052;SDS011;57398;52.032;4.376;2023-02-19T11:37:21;4.40;;;0.93;;
70052;SDS011;57398;52.032;4.376;2023-02-19T11:40:10;5.03;;;1.10;;
70052;SDS011;57398;52.032;4.376;2023-02-19T11:42:59;3.72;;;1.10;;
70052;SDS011;57398;52.032;4.376;2023-02-19T11:45:57;4.03;;;1.00;;
70052;SDS011;57398;52.032;4.376;2023-02-19T11:48:54;3.60;;;1.02;;
70052;SDS011;57398;52.032;4.376;2023-02-19T11:51:56;4.50;;;1.10;;
70052;SDS011;57398;52.032;4.376;2023-02-19T11:54:54;7.10;;;1.27;;
70052;SDS011;57398;52.032;4.376;2023-02-19T11:57:51;5.53;;;1.40;;
70052;SDS011;57398;52.032;4.376;2023-02-19T12:00:46;4.10;;;1.30;;
70052;SDS011;57398;52.032;4.376;2023-02-19T12:03:46;2.67;;;1.17;;
70052;SDS011;57398;52.032;4.376;2023-02-19T12:06:50;3.47;;;1.10;;
70052;SDS011;57398;52.032;4.376;2023-02-19T12:09:52;2.20;;;0.73;;
70052;SDS011;57398;52.032;4.376;2023-02-19T12:12:52;1.90;;;0.70;;
70052;SDS011;57398;52.032;4.376;2023-02-19T12:15:58;2.72;;;0.93;;
70052;SDS011;57398;52.032;4.376;2023-02-19T12:19:06;2.78;;;1.00;;
70052;SDS011;57398;52.032;4.376;2023-02-19T12:28:42;4.20;;;1.23;;
70052;SDS011;57398;52.032;4.376;2023-02-19T12:35:14;4.10;;;0.88;;
70052;SDS011;57398;52.032;4.376;2023-02-19T12:38:24;5.30;;;1.03;;
70052;SDS011;57398;52.032;4.376;2023-02-19T12:41:21;4.18;;;1.00;;
70052;SDS011;57398;52.032;4.376;2023-02-19T12:44:20;2.97;;;1.17;;
70052;SDS011;57398;52.032;4.376;2023-02-19T12:47:17;3.80;;;1.10;;
70052;SDS011;57398;52.032;4.376;2023-02-19T12:50:15;3.30;;;1.10;;
70052;SDS011;57398;52.032;4.376;2023-02-19T12:53:18;3.23;;;1.53;;
70052;SDS011;57398;52.032;4.376;2023-02-19T12:56:20;3.30;;;1.05;;
70052;SDS011;57398;52.032;4.376;2023-02-19T12:59:13;3.97;;;1.10;;
70052;SDS011;57398;52.032;4.376;2023-02-19T13:02:09;3.83;;;1.10;;
70052;SDS011;57398;52.032;4.376;2023-02-19T13:05:04;3.38;;;1.20;;
70052;SDS011;57398;52.032;4.376;2023-02-19T13:08:01;5.07;;;1.10;;
70052;SDS011;57398;52.032;4.376;2023-02-19T13:10:55;3.22;;;0.90;;
70052;SDS011;57398;52.032;4.376;2023-02-19T13:13:48;3.20;;;1.10;;
70052;SDS011;57398;52.032;4.376;2023-02-19T13:16:41;3.17;;;1.00;;
70052;SDS011;57398;52.032;4.376;2023-02-19T13:19:35;3.65;;;0.90;;
70052;SDS011;57398;52.032;4.376;2023-02-19T13:22:27;3.00;;;0.90;;
70052;SDS011;57398;52.032;4.376;2023-02-19T13:25:41;2.00;;;0.70;;
70052;SDS011;57398;52.032;4.376;2023-02-19T13:28:48;2.33;;;0.75;;
70052;SDS011;57398;52.032;4.376;2023-02-19T13:31:52;2.00;;;0.80;;
70052;SDS011;57398;52.032;4.376;2023-02-19T13:35:01;2.08;;;0.75;;
70052;SDS011;57398;52.032;4.376;2023-02-19T13:38:07;1.70;;;0.60;;
70052;SDS011;57398;52.032;4.376;2023-02-19T13:40:58;2.08;;;0.63;;
70052;SDS011;57398;52.032;4.376;2023-02-19T13:43:54;1.83;;;0.57;;
70052;SDS011;57398;52.032;4.376;2023-02-19T13:46:45;1.90;;;0.50;;
70052;SDS011;57398;52.032;4.376;2023-02-19T13:49:37;2.85;;;0.55;;
70052;SDS011;57398;52.032;4.376;2023-02-19T13:52:36;1.93;;;0.50;;
70052;SDS011;57398;52.032;4.376;2023-02-19T13:58:38;1.77;;;0.63;;
70052;SDS011;57398;52.032;4.376;2023-02-19T14:05:45;2.50;;;0.70;;
70052;SDS011;57398;52.032;4.376;2023-02-19T14:08:47;3.20;;;0.80;;
70052;SDS011;57398;52.032;4.376;2023-02-19T14:14:49;1.60;;;0.60;;
70052;SDS011;57398;52.032;4.376;2023-02-19T14:17:39;1.88;;;0.77;;
70052;SDS011;57398;52.032;4.376;2023-02-19T14:20:40;2.53;;;0.88;;
70052;SDS011;57398;52.032;4.376;2023-02-19T14:23:31;3.07;;;0.90;;
70052;SDS011;57398;52.032;4.376;2023-02-19T14:26:19;2.47;;;0.93;;
70052;SDS011;57398;52.032;4.376;2023-02-19T14:29:10;2.63;;;0.95;;
70052;SDS011;57398;52.032;4.376;2023-02-19T14:32:03;2.22;;;0.77;;
70052;SDS011;57398;52.032;4.376;2023-02-19T14:34:52;2.20;;;0.63;;
70052;SDS011;57398;52.032;4.376;2023-02-19T14:37:41;1.57;;;0.60;;
70052;SDS011;57398;52.032;4.376;2023-02-19T14:40:34;1.35;;;0.63;;
70052;SDS011;57398;52.032;4.376;2023-02-19T14:43:27;2.42;;;0.60;;
70052;SDS011;57398;52.032;4.376;2023-02-19T14:46:17;2.25;;;0.80;;
70052;SDS011;57398;52.032;4.376;2023-02-19T14:49:13;2.90;;;0.73;;
70052;SDS011;57398;52.032;4.376;2023-02-19T14:52:06;2.90;;;0.73;;
70052;SDS011;57398;52.032;4.376;2023-02-19T14:55:06;2.78;;;0.90;;
70052;SDS011;57398;52.032;4.376;2023-02-19T14:57:56;3.03;;;0.82;;
70052;SDS011;57398;52.032;4.376;2023-02-19T15:00:46;3.33;;;1.00;;
70052;SDS011;57398;52.032;4.376;2023-02-19T15:03:34;2.55;;;0.95;;
70052;SDS011;57398;52.032;4.376;2023-02-19T15:06:24;2.10;;;0.83;;
70052;SDS011;57398;52.032;4.376;2023-02-19T15:09:13;2.75;;;1.00;;
70052;SDS011;57398;52.032;4.376;2023-02-19T15:12:04;2.65;;;1.00;;
70052;SDS011;57398;52.032;4.376;2023-02-19T15:14:53;2.25;;;0.75;;
70052;SDS011;57398;52.032;4.376;2023-02-19T15:17:43;2.30;;;0.70;;
70052;SDS011;57398;52.032;4.376;2023-02-19T15:20:32;2.57;;;0.80;;
70052;SDS011;57398;52.032;4.376;2023-02-19T15:23:23;2.72;;;0.68;;
70052;SDS011;57398;52.032;4.376;2023-02-19T15:26:15;1.88;;;0.60;;
70052;SDS011;57398;52.032;4.376;2023-02-19T15:29:10;1.60;;;0.55;;
70052;SDS011;57398;52.032;4.376;2023-02-19T15:32:00;1.95;;;0.70;;
70052;SDS011;57398;52.032;4.376;2023-02-19T15:34:52;1.70;;;0.87;;
70052;SDS011;57398;52.032;4.376;2023-02-19T15:37:42;1.65;;;0.70;;
70052;SDS011;57398;52.032;4.376;2023-02-19T15:40:30;2.33;;;0.90;;
70052;SDS011;57398;52.032;4.376;2023-02-19T15:43:19;1.55;;;0.60;;
70052;SDS011;57398;52.032;4.376;2023-02-19T15:46:13;1.38;;;0.50;;
70052;SDS011;57398;52.032;4.376;2023-02-19T15:49:08;1.30;;;0.40;;
70052;SDS011;57398;52.032;4.376;2023-02-19T15:52:05;2.55;;;0.60;;
70052;SDS011;57398;52.032;4.376;2023-02-19T15:54:58;1.80;;;0.50;;
70052;SDS011;57398;52.032;4.376;2023-02-19T15:57:49;1.70;;;0.70;;
70052;SDS011;57398;52.032;4.376;2023-02-19T16:00:44;2.33;;;0.70;;
70052;SDS011;57398;52.032;4.376;2023-02-19T16:03:36;1.63;;;0.67;;
70052;SDS011;57398;52.032;4.376;2023-02-19T16:06:25;2.80;;;0.80;;
70052;SDS011;57398;52.032;4.376;2023-02-19T16:09:15;2.15;;;1.00;;
70052;SDS011;57398;52.032;4.376;2023-02-19T16:12:20;1.88;;;0.80;;
70052;SDS011;57398;52.032;4.376;2023-02-19T16:15:11;1.85;;;0.70;;
70052;SDS011;57398;52.032;4.376;2023-02-19T16:18:00;2.03;;;0.80;;
70052;SDS011;57398;52.032;4.376;2023-02-19T16:20:50;2.28;;;0.80;;
70052;SDS011;57398;52.032;4.376;2023-02-19T16:23:40;2.17;;;0.70;;
70052;SDS011;57398;52.032;4.376;2023-02-19T16:26:29;2.97;;;0.70;;
70052;SDS011;57398;52.032;4.376;2023-02-19T16:29:26;2.08;;;0.77;;
70052;SDS011;57398;52.032;4.376;2023-02-19T16:32:16;1.80;;;0.60;;
70052;SDS011;57398;52.032;4.376;2023-02-19T16:35:25;2.47;;;0.70;;
70052;SDS011;57398;52.032;4.376;2023-02-19T16:38:23;2.00;;;0.80;;
70052;SDS011;57398;52.032;4.376;2023-02-19T16:41:12;1.77;;;0.68;;
70052;SDS011;57398;52.032;4.376;2023-02-19T16:44:01;1.75;;;0.75;;
70052;SDS011;57398;52.032;4.376;2023-02-19T16:47:32;2.53;;;0.67;;
70052;SDS011;57398;52.032;4.376;2023-02-19T16:50:23;2.47;;;0.80;;
70052;SDS011;57398;52.032;4.376;2023-02-19T16:53:16;3.15;;;0.73;;
70052;SDS011;57398;52.032;4.376;2023-02-19T16:56:08;4.82;;;1.02;;
70052;SDS011;57398;52.032;4.376;2023-02-19T16:59:02;4.35;;;1.42;;
70052;SDS011;57398;52.032;4.376;2023-02-19T17:01:50;4.77;;;1.70;;
70052;SDS011;57398;52.032;4.376;2023-02-19T17:04:38;2.92;;;0.85;;
70052;SDS011;57398;52.032;4.376;2023-02-19T17:07:26;2.17;;;0.68;;
70052;SDS011;57398;52.032;4.376;2023-02-19T17:10:14;7.10;;;0.90;;
70052;SDS011;57398;52.032;4.376;2023-02-19T17:13:07;3.17;;;1.10;;
70052;SDS011;57398;52.032;4.376;2023-02-19T17:15:55;3.37;;;0.90;;
70052;SDS011;57398;52.032;4.376;2023-02-19T17:18:43;2.47;;;0.70;;
70052;SDS011;57398;52.032;4.376;2023-02-19T17:21:32;3.15;;;0.80;;
70052;SDS011;57398;52.032;4.376;2023-02-19T17:24:21;1.88;;;0.65;;
70052;SDS011;57398;52.032;4.376;2023-02-19T17:27:10;2.65;;;0.80;;
70052;SDS011;57398;52.032;4.376;2023-02-19T17:29:59;2.80;;;0.80;;
70052;SDS011;57398;52.032;4.376;2023-02-19T17:32:48;2.85;;;1.00;;
70052;SDS011;57398;52.032;4.376;2023-02-19T17:35:36;2.15;;;0.80;;